Terminal Aerodrome Forecast
Issued by NWS Charleston, WV

Home | Current Version | Previous Version | Text Only | Print | Product List | Glossary On
Versions: 1 2 3 4 5 6 7 8 9 10 11 12 13 14 15 16 17 18 19 20 21 22
000
FTUS41 KRLX 231532 AAB
TAFBKW
TAF AMD
KBKW 231532Z 2316/2412 22012G20KT P6SM SHRA VCTS SCT025 OVC040CB
     FM232300 22010KT 3SM SHRA VCTS BKN020 OVC040CB
     FM240700 24010KT 4SM -RA BR OVC007=

USA.gov is the U.S. government's official web portal to all federal, state and local government web resources and services.